world map with TAY marked

TAY - Airport

This information may not be accurate or current and is not valid for navigation or flight planning. No warranty of fitness for any purpose is made or implied.

flag of Estonia

Donate via PayPal

Additional information is available on the NEW Great Circle Mapper

Location
City:  Tartu, Estonia
Name:Ülenurme
ICAO / IATA:EETU / TAY

Details
Type:Airport (Aerodrome, Airfield)
Latitude:58°18'27"N (58.307461)
Longitude:26°41'26"E (26.690428)
Datum:WGS 1984
Elevation:219 ft (67 m)
Runways:1
Longest:4524 × 115 ft (1379 × 35 m)

Time
Timezone:UTC+2 (DST+5)
Local Time:

Weather
METAR:EETU  041350Z 28011KT 9999 OVC013 M03/M06 Q1016
TAF:EETU  (expired)

Related Locations
Nearby:
Farthest:NEMO: 11058 mi / 17797 km
Pacific Ocean [Oceanic Pole of Inaccessibility (Point Nemo)]

Find:

   beyond  
but within

Other Information
Maps:
Sources:

  


 


Great Circle Mapper   Great Circle Mapper
Great Circle Mapper FAQ   Great Circle Mapper FAQ
  Karl's Home Page
KLS˛   KLS˛ Home
   GC on Facebook
Airlines of the World   Airlines of the World
Donate via PayPal


Copyright © 2004-2019, Karl L. Swartz. All rights reserved.
All trademarks mentioned herein belong to their respective owners.

Please see credits for attribution and copyright information.

Karl Swartz <karl@kls2.com>
  Powered by FreeBSD
Valid HTML 4.01!
Labeled with ICRA
hCard Microformat
Geo Microformat